sensor_id;sensor_type;location;lat;lon;timestamp;P1;durP1;ratioP1;P2;durP2;ratioP2
46757;SDS011;32509;47.750;-3.396;2023-04-15T00:00:09;13.65;;;2.95;;
46757;SDS011;32509;47.750;-3.396;2023-04-15T00:02:36;5.13;;;1.67;;
46757;SDS011;32509;47.750;-3.396;2023-04-15T00:05:03;6.03;;;1.42;;
46757;SDS011;32509;47.750;-3.396;2023-04-15T00:07:29;5.45;;;2.45;;
46757;SDS011;32509;47.750;-3.396;2023-04-15T00:09:55;4.95;;;1.30;;
46757;SDS011;32509;47.750;-3.396;2023-04-15T00:12:26;5.00;;;2.33;;
46757;SDS011;32509;47.750;-3.396;2023-04-15T00:14:52;2.92;;;1.48;;
46757;SDS011;32509;47.750;-3.396;2023-04-15T00:17:18;8.18;;;2.65;;
46757;SDS011;32509;47.750;-3.396;2023-04-15T00:19:45;12.65;;;1.98;;
46757;SDS011;32509;47.750;-3.396;2023-04-15T00:22:11;7.63;;;1.50;;
46757;SDS011;32509;47.750;-3.396;2023-04-15T00:24:38;3.75;;;1.48;;
46757;SDS011;32509;47.750;-3.396;2023-04-15T00:27:04;5.70;;;1.40;;
46757;SDS011;32509;47.750;-3.396;2023-04-15T00:29:30;5.72;;;2.00;;
46757;SDS011;32509;47.750;-3.396;2023-04-15T00:31:56;4.38;;;1.60;;
46757;SDS011;32509;47.750;-3.396;2023-04-15T00:34:24;3.00;;;1.70;;
46757;SDS011;32509;47.750;-3.396;2023-04-15T00:36:50;8.80;;;1.60;;
46757;SDS011;32509;47.750;-3.396;2023-04-15T00:39:16;5.70;;;1.92;;
46757;SDS011;32509;47.750;-3.396;2023-04-15T00:41:43;4.10;;;1.63;;
46757;SDS011;32509;47.750;-3.396;2023-04-15T00:44:09;6.30;;;2.00;;
46757;SDS011;32509;47.750;-3.396;2023-04-15T00:46:36;6.75;;;2.10;;
46757;SDS011;32509;47.750;-3.396;2023-04-15T00:49:02;5.15;;;1.63;;
46757;SDS011;32509;47.750;-3.396;2023-04-15T00:51:29;4.70;;;1.50;;
46757;SDS011;32509;47.750;-3.396;2023-04-15T00:53:57;4.47;;;1.60;;
46757;SDS011;32509;47.750;-3.396;2023-04-15T00:56:24;3.67;;;1.70;;
46757;SDS011;32509;47.750;-3.396;2023-04-15T00:58:51;7.53;;;1.50;;
46757;SDS011;32509;47.750;-3.396;2023-04-15T01:01:20;3.55;;;1.52;;
46757;SDS011;32509;47.750;-3.396;2023-04-15T01:03:50;8.27;;;2.08;;
46757;SDS011;32509;47.750;-3.396;2023-04-15T01:06:17;5.82;;;1.77;;
46757;SDS011;32509;47.750;-3.396;2023-04-15T01:08:43;6.45;;;1.70;;
46757;SDS011;32509;47.750;-3.396;2023-04-15T01:11:12;6.60;;;1.85;;
46757;SDS011;32509;47.750;-3.396;2023-04-15T01:13:38;6.25;;;1.83;;
46757;SDS011;32509;47.750;-3.396;2023-04-15T01:16:06;5.10;;;2.15;;
46757;SDS011;32509;47.750;-3.396;2023-04-15T01:18:33;3.83;;;1.27;;
46757;SDS011;32509;47.750;-3.396;2023-04-15T01:20:59;4.63;;;2.50;;
46757;SDS011;32509;47.750;-3.396;2023-04-15T01:23:28;9.75;;;3.00;;
46757;SDS011;32509;47.750;-3.396;2023-04-15T01:25:54;6.63;;;3.03;;
46757;SDS011;32509;47.750;-3.396;2023-04-15T01:28:21;6.80;;;2.45;;
46757;SDS011;32509;47.750;-3.396;2023-04-15T01:30:47;6.03;;;1.85;;
46757;SDS011;32509;47.750;-3.396;2023-04-15T01:33:13;4.90;;;2.15;;
46757;SDS011;32509;47.750;-3.396;2023-04-15T01:35:40;6.60;;;2.58;;
46757;SDS011;32509;47.750;-3.396;2023-04-15T01:38:08;7.65;;;1.55;;
46757;SDS011;32509;47.750;-3.396;2023-04-15T01:40:35;5.57;;;2.15;;
46757;SDS011;32509;47.750;-3.396;2023-04-15T01:43:01;3.63;;;1.75;;
46757;SDS011;32509;47.750;-3.396;2023-04-15T01:45:28;4.28;;;1.60;;
46757;SDS011;32509;47.750;-3.396;2023-04-15T01:47:54;5.53;;;2.40;;
46757;SDS011;32509;47.750;-3.396;2023-04-15T01:50:20;4.40;;;1.73;;
46757;SDS011;32509;47.750;-3.396;2023-04-15T01:52:46;5.78;;;1.90;;
46757;SDS011;32509;47.750;-3.396;2023-04-15T01:55:13;6.00;;;1.52;;
46757;SDS011;32509;47.750;-3.396;2023-04-15T01:57:39;8.23;;;1.95;;
46757;SDS011;32509;47.750;-3.396;2023-04-15T02:00:05;7.32;;;2.40;;
46757;SDS011;32509;47.750;-3.396;2023-04-15T02:02:32;6.60;;;1.95;;
46757;SDS011;32509;47.750;-3.396;2023-04-15T02:04:58;7.07;;;1.73;;
46757;SDS011;32509;47.750;-3.396;2023-04-15T02:07:24;7.55;;;1.80;;
46757;SDS011;32509;47.750;-3.396;2023-04-15T02:09:51;4.20;;;1.65;;
46757;SDS011;32509;47.750;-3.396;2023-04-15T02:12:17;9.05;;;3.95;;
46757;SDS011;32509;47.750;-3.396;2023-04-15T02:14:43;7.18;;;2.50;;
46757;SDS011;32509;47.750;-3.396;2023-04-15T02:17:09;5.10;;;2.08;;
46757;SDS011;32509;47.750;-3.396;2023-04-15T02:19:35;7.25;;;2.58;;
46757;SDS011;32509;47.750;-3.396;2023-04-15T02:22:03;9.20;;;2.03;;
46757;SDS011;32509;47.750;-3.396;2023-04-15T02:24:31;8.43;;;2.78;;
46757;SDS011;32509;47.750;-3.396;2023-04-15T02:26:57;5.30;;;2.22;;
46757;SDS011;32509;47.750;-3.396;2023-04-15T02:29:23;9.05;;;1.85;;
46757;SDS011;32509;47.750;-3.396;2023-04-15T02:31:49;7.38;;;1.83;;
46757;SDS011;32509;47.750;-3.396;2023-04-15T02:34:15;6.72;;;1.73;;
46757;SDS011;32509;47.750;-3.396;2023-04-15T02:36:41;4.80;;;1.95;;
46757;SDS011;32509;47.750;-3.396;2023-04-15T02:39:07;6.85;;;2.55;;
46757;SDS011;32509;47.750;-3.396;2023-04-15T02:41:33;5.68;;;1.73;;
46757;SDS011;32509;47.750;-3.396;2023-04-15T02:44:00;9.30;;;2.13;;
46757;SDS011;32509;47.750;-3.396;2023-04-15T02:46:26;6.72;;;1.85;;
46757;SDS011;32509;47.750;-3.396;2023-04-15T02:48:52;5.47;;;1.88;;
46757;SDS011;32509;47.750;-3.396;2023-04-15T02:51:19;6.32;;;2.33;;
46757;SDS011;32509;47.750;-3.396;2023-04-15T02:53:47;5.65;;;1.80;;
46757;SDS011;32509;47.750;-3.396;2023-04-15T02:56:13;8.77;;;2.55;;
46757;SDS011;32509;47.750;-3.396;2023-04-15T02:58:42;7.28;;;2.00;;
46757;SDS011;32509;47.750;-3.396;2023-04-15T03:01:09;3.45;;;1.67;;
46757;SDS011;32509;47.750;-3.396;2023-04-15T03:03:36;4.43;;;2.33;;
46757;SDS011;32509;47.750;-3.396;2023-04-15T03:06:02;5.55;;;2.05;;
46757;SDS011;32509;47.750;-3.396;2023-04-15T03:08:28;7.95;;;2.58;;
46757;SDS011;32509;47.750;-3.396;2023-04-15T03:10:54;5.45;;;2.10;;
46757;SDS011;32509;47.750;-3.396;2023-04-15T03:13:24;4.88;;;1.88;;
46757;SDS011;32509;47.750;-3.396;2023-04-15T03:15:50;11.20;;;2.47;;
46757;SDS011;32509;47.750;-3.396;2023-04-15T03:18:16;7.03;;;1.60;;
46757;SDS011;32509;47.750;-3.396;2023-04-15T03:20:43;5.78;;;1.50;;
46757;SDS011;32509;47.750;-3.396;2023-04-15T03:23:09;5.22;;;2.20;;
46757;SDS011;32509;47.750;-3.396;2023-04-15T03:25:35;6.68;;;1.85;;
46757;SDS011;32509;47.750;-3.396;2023-04-15T03:28:01;9.15;;;1.88;;
46757;SDS011;32509;47.750;-3.396;2023-04-15T03:30:27;7.03;;;2.17;;
46757;SDS011;32509;47.750;-3.396;2023-04-15T03:32:54;5.95;;;2.10;;
46757;SDS011;32509;47.750;-3.396;2023-04-15T03:35:20;4.35;;;2.08;;
46757;SDS011;32509;47.750;-3.396;2023-04-15T03:37:46;4.30;;;1.83;;
46757;SDS011;32509;47.750;-3.396;2023-04-15T03:40:13;5.25;;;2.72;;
46757;SDS011;32509;47.750;-3.396;2023-04-15T03:42:39;7.95;;;2.25;;
46757;SDS011;32509;47.750;-3.396;2023-04-15T03:45:06;3.05;;;1.70;;
46757;SDS011;32509;47.750;-3.396;2023-04-15T03:47:32;8.07;;;1.67;;
46757;SDS011;32509;47.750;-3.396;2023-04-15T03:49:58;5.25;;;2.00;;
46757;SDS011;32509;47.750;-3.396;2023-04-15T03:52:24;7.45;;;2.40;;
46757;SDS011;32509;47.750;-3.396;2023-04-15T03:54:50;11.10;;;1.80;;
46757;SDS011;32509;47.750;-3.396;2023-04-15T03:57:16;8.57;;;1.83;;
46757;SDS011;32509;47.750;-3.396;2023-04-15T03:59:43;9.10;;;2.25;;
46757;SDS011;32509;47.750;-3.396;2023-04-15T04:02:09;5.85;;;2.40;;
46757;SDS011;32509;47.750;-3.396;2023-04-15T04:04:35;8.07;;;2.08;;
46757;SDS011;32509;47.750;-3.396;2023-04-15T04:07:01;10.88;;;2.70;;
46757;SDS011;32509;47.750;-3.396;2023-04-15T04:09:27;7.97;;;1.98;;
46757;SDS011;32509;47.750;-3.396;2023-04-15T04:11:53;10.00;;;2.67;;
46757;SDS011;32509;47.750;-3.396;2023-04-15T04:14:20;9.68;;;2.80;;
46757;SDS011;32509;47.750;-3.396;2023-04-15T04:19:19;7.10;;;2.75;;
46757;SDS011;32509;47.750;-3.396;2023-04-15T04:21:45;6.32;;;2.30;;
46757;SDS011;32509;47.750;-3.396;2023-04-15T04:24:11;7.20;;;2.17;;
46757;SDS011;32509;47.750;-3.396;2023-04-15T04:26:37;6.15;;;2.00;;
46757;SDS011;32509;47.750;-3.396;2023-04-15T04:29:03;7.90;;;2.10;;
46757;SDS011;32509;47.750;-3.396;2023-04-15T04:31:29;5.07;;;1.67;;
46757;SDS011;32509;47.750;-3.396;2023-04-15T04:33:55;11.10;;;2.60;;
46757;SDS011;32509;47.750;-3.396;2023-04-15T04:36:21;5.10;;;1.85;;
46757;SDS011;32509;47.750;-3.396;2023-04-15T04:38:47;6.57;;;2.30;;
46757;SDS011;32509;47.750;-3.396;2023-04-15T04:41:13;6.38;;;3.10;;
46757;SDS011;32509;47.750;-3.396;2023-04-15T04:43:40;6.80;;;1.90;;
46757;SDS011;32509;47.750;-3.396;2023-04-15T04:46:06;3.42;;;1.70;;
46757;SDS011;32509;47.750;-3.396;2023-04-15T04:48:32;7.05;;;2.30;;
46757;SDS011;32509;47.750;-3.396;2023-04-15T04:50:58;6.55;;;1.90;;
46757;SDS011;32509;47.750;-3.396;2023-04-15T04:53:24;10.07;;;1.83;;
46757;SDS011;32509;47.750;-3.396;2023-04-15T04:55:52;6.55;;;2.25;;
46757;SDS011;32509;47.750;-3.396;2023-04-15T04:58:18;7.50;;;2.10;;
46757;SDS011;32509;47.750;-3.396;2023-04-15T05:00:44;6.43;;;2.67;;
46757;SDS011;32509;47.750;-3.396;2023-04-15T05:03:10;6.82;;;1.95;;
46757;SDS011;32509;47.750;-3.396;2023-04-15T05:05:36;5.57;;;1.80;;
46757;SDS011;32509;47.750;-3.396;2023-04-15T05:08:05;6.53;;;2.30;;
46757;SDS011;32509;47.750;-3.396;2023-04-15T05:10:31;7.63;;;2.88;;
46757;SDS011;32509;47.750;-3.396;2023-04-15T05:12:57;7.15;;;2.45;;
46757;SDS011;32509;47.750;-3.396;2023-04-15T05:15:23;8.75;;;2.13;;
46757;SDS011;32509;47.750;-3.396;2023-04-15T05:17:49;7.85;;;1.83;;
46757;SDS011;32509;47.750;-3.396;2023-04-15T05:20:15;7.57;;;1.88;;
46757;SDS011;32509;47.750;-3.396;2023-04-15T05:22:42;8.30;;;2.30;;
46757;SDS011;32509;47.750;-3.396;2023-04-15T05:25:08;5.72;;;2.25;;
46757;SDS011;32509;47.750;-3.396;2023-04-15T05:27:34;7.35;;;1.67;;
46757;SDS011;32509;47.750;-3.396;2023-04-15T05:30:00;7.57;;;1.75;;
46757;SDS011;32509;47.750;-3.396;2023-04-15T05:32:26;6.20;;;2.20;;
46757;SDS011;32509;47.750;-3.396;2023-04-15T05:34:52;5.90;;;1.90;;
46757;SDS011;32509;47.750;-3.396;2023-04-15T05:37:19;9.02;;;2.50;;
46757;SDS011;32509;47.750;-3.396;2023-04-15T05:39:46;7.57;;;2.40;;
46757;SDS011;32509;47.750;-3.396;2023-04-15T05:42:13;4.03;;;2.17;;
46757;SDS011;32509;47.750;-3.396;2023-04-15T05:44:39;5.70;;;1.95;;
46757;SDS011;32509;47.750;-3.396;2023-04-15T05:47:05;11.75;;;3.22;;
46757;SDS011;32509;47.750;-3.396;2023-04-15T05:49:32;7.75;;;2.10;;
46757;SDS011;32509;47.750;-3.396;2023-04-15T05:51:58;9.18;;;1.92;;
46757;SDS011;32509;47.750;-3.396;2023-04-15T05:54:24;8.77;;;2.70;;
46757;SDS011;32509;47.750;-3.396;2023-04-15T05:56:52;5.32;;;1.60;;
46757;SDS011;32509;47.750;-3.396;2023-04-15T05:59:18;8.05;;;2.08;;
46757;SDS011;32509;47.750;-3.396;2023-04-15T06:01:44;7.53;;;2.10;;
46757;SDS011;32509;47.750;-3.396;2023-04-15T06:04:11;6.18;;;2.00;;
46757;SDS011;32509;47.750;-3.396;2023-04-15T06:06:37;5.95;;;2.28;;
46757;SDS011;32509;47.750;-3.396;2023-04-15T06:09:03;12.35;;;3.40;;
46757;SDS011;32509;47.750;-3.396;2023-04-15T06:11:29;6.55;;;2.92;;
46757;SDS011;32509;47.750;-3.396;2023-04-15T06:13:55;6.28;;;2.33;;
46757;SDS011;32509;47.750;-3.396;2023-04-15T06:16:21;8.68;;;3.15;;
46757;SDS011;32509;47.750;-3.396;2023-04-15T06:18:48;10.30;;;2.25;;
46757;SDS011;32509;47.750;-3.396;2023-04-15T06:21:14;8.50;;;2.17;;
46757;SDS011;32509;47.750;-3.396;2023-04-15T06:23:40;11.30;;;2.45;;
46757;SDS011;32509;47.750;-3.396;2023-04-15T06:26:06;4.97;;;2.08;;
46757;SDS011;32509;47.750;-3.396;2023-04-15T06:28:32;11.75;;;2.50;;
46757;SDS011;32509;47.750;-3.396;2023-04-15T06:30:59;3.53;;;1.30;;
46757;SDS011;32509;47.750;-3.396;2023-04-15T06:33:26;10.98;;;2.53;;
46757;SDS011;32509;47.750;-3.396;2023-04-15T06:35:52;14.25;;;3.83;;
46757;SDS011;32509;47.750;-3.396;2023-04-15T06:38:18;10.65;;;2.33;;
46757;SDS011;32509;47.750;-3.396;2023-04-15T06:40:44;10.35;;;2.15;;
46757;SDS011;32509;47.750;-3.396;2023-04-15T06:43:10;7.63;;;2.50;;
46757;SDS011;32509;47.750;-3.396;2023-04-15T06:45:36;8.05;;;2.20;;
46757;SDS011;32509;47.750;-3.396;2023-04-15T06:48:03;11.02;;;2.25;;
46757;SDS011;32509;47.750;-3.396;2023-04-15T06:50:29;7.30;;;1.95;;
46757;SDS011;32509;47.750;-3.396;2023-04-15T06:52:56;7.50;;;1.88;;
46757;SDS011;32509;47.750;-3.396;2023-04-15T06:55:22;5.07;;;1.77;;
46757;SDS011;32509;47.750;-3.396;2023-04-15T06:57:48;7.43;;;2.50;;
46757;SDS011;32509;47.750;-3.396;2023-04-15T07:00:14;10.60;;;2.80;;
46757;SDS011;32509;47.750;-3.396;2023-04-15T07:02:41;7.53;;;1.75;;
46757;SDS011;32509;47.750;-3.396;2023-04-15T07:05:07;12.48;;;3.15;;
46757;SDS011;32509;47.750;-3.396;2023-04-15T07:07:34;8.40;;;2.47;;
46757;SDS011;32509;47.750;-3.396;2023-04-15T07:10:00;11.68;;;2.95;;
46757;SDS011;32509;47.750;-3.396;2023-04-15T07:12:26;8.18;;;2.13;;
46757;SDS011;32509;47.750;-3.396;2023-04-15T07:14:52;7.50;;;2.45;;
46757;SDS011;32509;47.750;-3.396;2023-04-15T07:17:18;11.38;;;2.22;;
46757;SDS011;32509;47.750;-3.396;2023-04-15T07:19:45;9.70;;;2.13;;
46757;SDS011;32509;47.750;-3.396;2023-04-15T07:22:11;5.40;;;2.35;;
46757;SDS011;32509;47.750;-3.396;2023-04-15T07:24:37;8.52;;;2.53;;
46757;SDS011;32509;47.750;-3.396;2023-04-15T07:27:03;8.15;;;2.40;;
46757;SDS011;32509;47.750;-3.396;2023-04-15T07:29:29;10.65;;;2.83;;
46757;SDS011;32509;47.750;-3.396;2023-04-15T07:31:56;7.63;;;2.50;;
46757;SDS011;32509;47.750;-3.396;2023-04-15T07:34:22;10.05;;;2.70;;
46757;SDS011;32509;47.750;-3.396;2023-04-15T07:36:48;8.40;;;2.45;;
46757;SDS011;32509;47.750;-3.396;2023-04-15T07:39:16;20.65;;;3.92;;
46757;SDS011;32509;47.750;-3.396;2023-04-15T07:41:42;8.75;;;2.20;;
46757;SDS011;32509;47.750;-3.396;2023-04-15T07:44:08;11.15;;;3.00;;
46757;SDS011;32509;47.750;-3.396;2023-04-15T07:46:34;13.77;;;3.42;;
46757;SDS011;32509;47.750;-3.396;2023-04-15T07:49:02;8.05;;;2.42;;
46757;SDS011;32509;47.750;-3.396;2023-04-15T07:51:28;7.68;;;1.98;;
46757;SDS011;32509;47.750;-3.396;2023-04-15T07:53:54;13.10;;;2.92;;
46757;SDS011;32509;47.750;-3.396;2023-04-15T07:56:21;12.73;;;2.70;;
46757;SDS011;32509;47.750;-3.396;2023-04-15T07:58:47;13.50;;;2.72;;
46757;SDS011;32509;47.750;-3.396;2023-04-15T08:01:13;8.63;;;2.53;;
46757;SDS011;32509;47.750;-3.396;2023-04-15T08:03:39;10.25;;;2.25;;
46757;SDS011;32509;47.750;-3.396;2023-04-15T08:06:05;14.95;;;2.83;;
46757;SDS011;32509;47.750;-3.396;2023-04-15T08:08:31;12.20;;;2.13;;
46757;SDS011;32509;47.750;-3.396;2023-04-15T08:10:57;9.23;;;2.40;;
46757;SDS011;32509;47.750;-3.396;2023-04-15T08:13:24;14.02;;;2.80;;
46757;SDS011;32509;47.750;-3.396;2023-04-15T08:15:52;13.02;;;3.30;;
46757;SDS011;32509;47.750;-3.396;2023-04-15T08:18:37;11.38;;;3.13;;
46757;SDS011;32509;47.750;-3.396;2023-04-15T08:21:03;14.02;;;3.33;;
46757;SDS011;32509;47.750;-3.396;2023-04-15T08:23:30;12.18;;;2.50;;
46757;SDS011;32509;47.750;-3.396;2023-04-15T08:25:57;11.82;;;2.42;;
46757;SDS011;32509;47.750;-3.396;2023-04-15T08:28:23;10.32;;;3.00;;
46757;SDS011;32509;47.750;-3.396;2023-04-15T08:30:51;10.43;;;2.83;;
46757;SDS011;32509;47.750;-3.396;2023-04-15T08:33:17;10.18;;;2.45;;
46757;SDS011;32509;47.750;-3.396;2023-04-15T08:35:43;8.50;;;2.92;;
46757;SDS011;32509;47.750;-3.396;2023-04-15T08:38:09;8.10;;;2.17;;
46757;SDS011;32509;47.750;-3.396;2023-04-15T08:40:43;8.48;;;2.10;;
46757;SDS011;32509;47.750;-3.396;2023-04-15T08:43:14;7.53;;;2.10;;
46757;SDS011;32509;47.750;-3.396;2023-04-15T08:45:43;10.32;;;1.95;;
46757;SDS011;32509;47.750;-3.396;2023-04-15T08:48:12;8.65;;;2.53;;
46757;SDS011;32509;47.750;-3.396;2023-04-15T08:50:40;7.00;;;1.83;;
46757;SDS011;32509;47.750;-3.396;2023-04-15T08:53:06;4.93;;;1.70;;
46757;SDS011;32509;47.750;-3.396;2023-04-15T08:55:34;9.88;;;2.30;;
46757;SDS011;32509;47.750;-3.396;2023-04-15T08:58:01;9.82;;;3.17;;
46757;SDS011;32509;47.750;-3.396;2023-04-15T09:00:27;13.00;;;2.30;;
46757;SDS011;32509;47.750;-3.396;2023-04-15T09:02:54;10.50;;;2.13;;
46757;SDS011;32509;47.750;-3.396;2023-04-15T09:05:21;6.65;;;2.03;;
46757;SDS011;32509;47.750;-3.396;2023-04-15T09:07:47;10.27;;;2.33;;
46757;SDS011;32509;47.750;-3.396;2023-04-15T09:10:15;9.35;;;2.53;;
46757;SDS011;32509;47.750;-3.396;2023-04-15T09:12:41;5.88;;;1.45;;
46757;SDS011;32509;47.750;-3.396;2023-04-15T09:15:10;4.13;;;1.75;;
46757;SDS011;32509;47.750;-3.396;2023-04-15T09:17:41;4.60;;;1.10;;
46757;SDS011;32509;47.750;-3.396;2023-04-15T09:20:14;7.57;;;1.55;;
46757;SDS011;32509;47.750;-3.396;2023-04-15T09:27:54;5.05;;;1.50;;
46757;SDS011;32509;47.750;-3.396;2023-04-15T09:30:20;2.45;;;1.13;;
46757;SDS011;32509;47.750;-3.396;2023-04-15T09:32:57;3.28;;;1.23;;
46757;SDS011;32509;47.750;-3.396;2023-04-15T09:35:24;4.10;;;1.50;;
46757;SDS011;32509;47.750;-3.396;2023-04-15T09:37:51;4.57;;;1.30;;
46757;SDS011;32509;47.750;-3.396;2023-04-15T09:40:30;5.35;;;1.00;;
46757;SDS011;32509;47.750;-3.396;2023-04-15T09:42:57;9.20;;;1.60;;
46757;SDS011;32509;47.750;-3.396;2023-04-15T09:45:23;7.15;;;1.30;;
46757;SDS011;32509;47.750;-3.396;2023-04-15T09:47:50;5.93;;;1.38;;
46757;SDS011;32509;47.750;-3.396;2023-04-15T09:50:17;3.60;;;0.80;;
46757;SDS011;32509;47.750;-3.396;2023-04-15T09:52:43;3.92;;;1.52;;
46757;SDS011;32509;47.750;-3.396;2023-04-15T09:55:10;6.05;;;1.75;;
46757;SDS011;32509;47.750;-3.396;2023-04-15T09:57:37;2.60;;;1.20;;
46757;SDS011;32509;47.750;-3.396;2023-04-15T10:00:03;7.38;;;1.85;;
46757;SDS011;32509;47.750;-3.396;2023-04-15T10:02:30;3.22;;;1.55;;
46757;SDS011;32509;47.750;-3.396;2023-04-15T10:04:56;7.82;;;2.25;;
46757;SDS011;32509;47.750;-3.396;2023-04-15T10:07:23;7.97;;;1.65;;
46757;SDS011;32509;47.750;-3.396;2023-04-15T10:09:50;5.28;;;1.17;;
46757;SDS011;32509;47.750;-3.396;2023-04-15T10:12:16;7.57;;;1.30;;
46757;SDS011;32509;47.750;-3.396;2023-04-15T10:14:43;5.22;;;1.58;;
46757;SDS011;32509;47.750;-3.396;2023-04-15T10:17:12;6.57;;;1.55;;
46757;SDS011;32509;47.750;-3.396;2023-04-15T10:19:38;4.07;;;1.35;;
46757;SDS011;32509;47.750;-3.396;2023-04-15T10:22:05;5.60;;;1.27;;
46757;SDS011;32509;47.750;-3.396;2023-04-15T10:24:32;6.95;;;1.27;;
46757;SDS011;32509;47.750;-3.396;2023-04-15T10:26:58;4.63;;;1.38;;
46757;SDS011;32509;47.750;-3.396;2023-04-15T10:29:24;4.22;;;1.65;;
46757;SDS011;32509;47.750;-3.396;2023-04-15T10:31:57;3.90;;;1.45;;
46757;SDS011;32509;47.750;-3.396;2023-04-15T10:34:23;10.05;;;1.63;;
46757;SDS011;32509;47.750;-3.396;2023-04-15T10:36:50;4.93;;;1.45;;
46757;SDS011;32509;47.750;-3.396;2023-04-15T10:42:15;2.92;;;0.98;;
46757;SDS011;32509;47.750;-3.396;2023-04-15T10:44:47;4.68;;;1.00;;
46757;SDS011;32509;47.750;-3.396;2023-04-15T10:47:16;3.30;;;1.20;;
46757;SDS011;32509;47.750;-3.396;2023-04-15T10:49:49;3.15;;;0.95;;
46757;SDS011;32509;47.750;-3.396;2023-04-15T10:52:16;3.92;;;1.20;;
46757;SDS011;32509;47.750;-3.396;2023-04-15T10:54:43;3.50;;;1.52;;
46757;SDS011;32509;47.750;-3.396;2023-04-15T10:57:57;4.35;;;1.10;;
46757;SDS011;32509;47.750;-3.396;2023-04-15T11:00:00;4.32;;;1.10;;
46757;SDS011;32509;47.750;-3.396;2023-04-15T11:05:04;5.00;;;1.15;;
46757;SDS011;32509;47.750;-3.396;2023-04-15T11:07:38;4.60;;;1.45;;
46757;SDS011;32509;47.750;-3.396;2023-04-15T11:12:45;2.50;;;0.90;;
46757;SDS011;32509;47.750;-3.396;2023-04-15T11:17:56;4.82;;;1.33;;
46757;SDS011;32509;47.750;-3.396;2023-04-15T11:20:22;3.83;;;1.52;;
46757;SDS011;32509;47.750;-3.396;2023-04-15T11:22:54;5.97;;;1.48;;
46757;SDS011;32509;47.750;-3.396;2023-04-15T11:25:23;6.03;;;1.23;;
46757;SDS011;32509;47.750;-3.396;2023-04-15T11:27:50;4.50;;;1.10;;
46757;SDS011;32509;47.750;-3.396;2023-04-15T11:30:26;4.25;;;0.90;;
46757;SDS011;32509;47.750;-3.396;2023-04-15T11:32:53;3.00;;;0.98;;
46757;SDS011;32509;47.750;-3.396;2023-04-15T11:35:19;8.73;;;1.40;;
46757;SDS011;32509;47.750;-3.396;2023-04-15T11:37:47;6.70;;;1.83;;
46757;SDS011;32509;47.750;-3.396;2023-04-15T11:40:16;5.30;;;1.92;;
46757;SDS011;32509;47.750;-3.396;2023-04-15T11:42:48;4.97;;;2.17;;
46757;SDS011;32509;47.750;-3.396;2023-04-15T11:45:28;9.45;;;2.10;;
46757;SDS011;32509;47.750;-3.396;2023-04-15T11:47:59;8.48;;;2.65;;
46757;SDS011;32509;47.750;-3.396;2023-04-15T11:50:29;8.13;;;6.20;;
46757;SDS011;32509;47.750;-3.396;2023-04-15T11:52:56;3.20;;;1.40;;
46757;SDS011;32509;47.750;-3.396;2023-04-15T11:55:22;3.42;;;1.55;;
46757;SDS011;32509;47.750;-3.396;2023-04-15T11:57:49;3.15;;;1.50;;
46757;SDS011;32509;47.750;-3.396;2023-04-15T12:00:15;3.95;;;1.00;;
46757;SDS011;32509;47.750;-3.396;2023-04-15T12:02:42;4.85;;;1.00;;
46757;SDS011;32509;47.750;-3.396;2023-04-15T12:05:08;3.25;;;0.82;;
46757;SDS011;32509;47.750;-3.396;2023-04-15T12:10:22;3.85;;;0.80;;
46757;SDS011;32509;47.750;-3.396;2023-04-15T12:12:50;1.75;;;0.60;;
46757;SDS011;32509;47.750;-3.396;2023-04-15T12:15:20;3.35;;;1.10;;
46757;SDS011;32509;47.750;-3.396;2023-04-15T12:17:47;3.72;;;0.82;;
46757;SDS011;32509;47.750;-3.396;2023-04-15T12:20:19;4.05;;;1.00;;
46757;SDS011;32509;47.750;-3.396;2023-04-15T12:22:46;3.23;;;0.70;;
46757;SDS011;32509;47.750;-3.396;2023-04-15T12:25:12;2.15;;;0.70;;
46757;SDS011;32509;47.750;-3.396;2023-04-15T12:27:38;3.08;;;0.70;;
46757;SDS011;32509;47.750;-3.396;2023-04-15T12:30:05;2.63;;;0.70;;
46757;SDS011;32509;47.750;-3.396;2023-04-15T12:32:34;3.65;;;0.73;;
46757;SDS011;32509;47.750;-3.396;2023-04-15T12:35:01;2.72;;;0.68;;
46757;SDS011;32509;47.750;-3.396;2023-04-15T12:37:27;1.90;;;0.70;;
46757;SDS011;32509;47.750;-3.396;2023-04-15T12:39:53;4.18;;;0.80;;
46757;SDS011;32509;47.750;-3.396;2023-04-15T12:42:19;2.97;;;0.80;;
46757;SDS011;32509;47.750;-3.396;2023-04-15T12:44:46;5.00;;;1.45;;
46757;SDS011;32509;47.750;-3.396;2023-04-15T12:47:12;5.38;;;1.00;;
46757;SDS011;32509;47.750;-3.396;2023-04-15T12:49:39;4.22;;;1.00;;
46757;SDS011;32509;47.750;-3.396;2023-04-15T12:52:05;2.78;;;1.27;;
46757;SDS011;32509;47.750;-3.396;2023-04-15T12:54:31;2.22;;;0.90;;
46757;SDS011;32509;47.750;-3.396;2023-04-15T12:56:57;3.55;;;0.55;;
46757;SDS011;32509;47.750;-3.396;2023-04-15T12:59:23;6.07;;;1.10;;
46757;SDS011;32509;47.750;-3.396;2023-04-15T13:01:50;2.92;;;1.10;;
46757;SDS011;32509;47.750;-3.396;2023-04-15T13:04:17;3.10;;;1.02;;
46757;SDS011;32509;47.750;-3.396;2023-04-15T13:06:43;2.50;;;0.90;;
46757;SDS011;32509;47.750;-3.396;2023-04-15T13:09:10;3.22;;;0.77;;
46757;SDS011;32509;47.750;-3.396;2023-04-15T13:11:36;3.25;;;1.25;;
46757;SDS011;32509;47.750;-3.396;2023-04-15T13:14:02;5.03;;;0.93;;
46757;SDS011;32509;47.750;-3.396;2023-04-15T13:16:29;3.45;;;1.15;;
46757;SDS011;32509;47.750;-3.396;2023-04-15T13:18:56;2.60;;;0.85;;
46757;SDS011;32509;47.750;-3.396;2023-04-15T13:21:22;1.77;;;0.70;;
46757;SDS011;32509;47.750;-3.396;2023-04-15T13:23:48;3.33;;;1.08;;
46757;SDS011;32509;47.750;-3.396;2023-04-15T13:26:17;1.58;;;0.57;;
46757;SDS011;32509;47.750;-3.396;2023-04-15T13:28:43;6.65;;;1.45;;
46757;SDS011;32509;47.750;-3.396;2023-04-15T13:31:10;1.85;;;0.75;;
46757;SDS011;32509;47.750;-3.396;2023-04-15T13:33:36;3.40;;;1.00;;
46757;SDS011;32509;47.750;-3.396;2023-04-15T13:36:02;4.50;;;1.00;;
46757;SDS011;32509;47.750;-3.396;2023-04-15T13:38:28;3.17;;;0.80;;
46757;SDS011;32509;47.750;-3.396;2023-04-15T13:40:54;2.72;;;1.02;;
46757;SDS011;32509;47.750;-3.396;2023-04-15T13:43:20;5.95;;;1.65;;
46757;SDS011;32509;47.750;-3.396;2023-04-15T13:45:47;3.38;;;1.10;;
46757;SDS011;32509;47.750;-3.396;2023-04-15T13:48:13;5.70;;;0.65;;
46757;SDS011;32509;47.750;-3.396;2023-04-15T13:50:39;4.88;;;0.80;;
46757;SDS011;32509;47.750;-3.396;2023-04-15T13:53:09;3.00;;;1.00;;
46757;SDS011;32509;47.750;-3.396;2023-04-15T13:55:35;1.40;;;0.60;;
46757;SDS011;32509;47.750;-3.396;2023-04-15T13:58:05;3.55;;;0.68;;
46757;SDS011;32509;47.750;-3.396;2023-04-15T14:00:31;4.22;;;0.90;;
46757;SDS011;32509;47.750;-3.396;2023-04-15T14:02:57;1.92;;;0.95;;
46757;SDS011;32509;47.750;-3.396;2023-04-15T14:05:23;2.92;;;0.70;;
46757;SDS011;32509;47.750;-3.396;2023-04-15T14:07:49;4.45;;;0.60;;
46757;SDS011;32509;47.750;-3.396;2023-04-15T14:10:15;3.88;;;1.02;;
46757;SDS011;32509;47.750;-3.396;2023-04-15T14:12:41;1.58;;;0.65;;
46757;SDS011;32509;47.750;-3.396;2023-04-15T14:15:08;3.20;;;0.80;;
46757;SDS011;32509;47.750;-3.396;2023-04-15T14:17:34;3.47;;;0.60;;
46757;SDS011;32509;47.750;-3.396;2023-04-15T14:20:00;1.45;;;0.70;;
46757;SDS011;32509;47.750;-3.396;2023-04-15T14:22:26;2.47;;;0.70;;
46757;SDS011;32509;47.750;-3.396;2023-04-15T14:24:52;0.90;;;0.60;;
46757;SDS011;32509;47.750;-3.396;2023-04-15T14:27:19;1.52;;;0.68;;
46757;SDS011;32509;47.750;-3.396;2023-04-15T14:29:45;4.28;;;0.75;;
46757;SDS011;32509;47.750;-3.396;2023-04-15T14:32:12;0.80;;;0.60;;
46757;SDS011;32509;47.750;-3.396;2023-04-15T14:34:38;4.03;;;0.82;;
46757;SDS011;32509;47.750;-3.396;2023-04-15T14:37:04;1.80;;;0.90;;
46757;SDS011;32509;47.750;-3.396;2023-04-15T14:39:30;2.35;;;0.80;;
46757;SDS011;32509;47.750;-3.396;2023-04-15T14:41:57;2.92;;;0.90;;
46757;SDS011;32509;47.750;-3.396;2023-04-15T14:44:23;5.28;;;1.40;;
46757;SDS011;32509;47.750;-3.396;2023-04-15T14:46:49;5.95;;;1.90;;
46757;SDS011;32509;47.750;-3.396;2023-04-15T14:49:16;9.00;;;1.98;;
46757;SDS011;32509;47.750;-3.396;2023-04-15T14:51:42;7.00;;;2.60;;